createdAt,value
2022-11-02T00:00:30.315Z,99694.47
2022-11-02T00:01:43.737Z,99693.50
2022-11-02T00:02:47.741Z,99693.38
2022-11-02T00:03:51.717Z,99693.28
2022-11-02T00:04:55.543Z,99699.56
2022-11-02T00:05:59.422Z,99688.88
2022-11-02T00:07:03.211Z,99698.72
2022-11-02T00:08:07.234Z,99695.31
2022-11-02T00:09:11.091Z,99693.63
2022-11-02T00:10:15.843Z,99693.63
2022-11-02T00:11:20.003Z,99695.06
2022-11-02T00:12:24.230Z,99693.16
2022-11-02T00:13:28.314Z,99694.22
2022-11-02T00:14:32.065Z,99688.16
2022-11-02T00:15:37.825Z,99686.47
2022-11-02T00:16:42.159Z,99684.75
2022-11-02T00:17:50.669Z,99686.34
2022-11-02T00:19:00.662Z,99688.88
2022-11-02T00:20:06.008Z,99684.41
2022-11-02T00:21:11.969Z,99692.53
2022-11-02T00:22:16.468Z,99685.28
2022-11-02T00:23:20.703Z,99683.34
2022-11-02T00:24:25.104Z,99683.56
2022-11-02T00:25:30.164Z,99685.03
2022-11-02T00:26:37.114Z,99692.19
2022-11-02T00:27:43.062Z,99694.22
2022-11-02T00:28:47.213Z,99688.88
2022-11-02T00:29:52.101Z,99688.03
2022-11-02T00:30:55.980Z,99685.38
2022-11-02T00:32:00.776Z,99685.28
2022-11-02T00:33:04.982Z,99686.00
2022-11-02T00:34:08.986Z,99689.53
2022-11-02T00:35:13.478Z,99690.38
2022-11-02T00:36:17.686Z,99690.25
2022-11-02T00:37:21.905Z,99688.44
2022-11-02T00:38:25.823Z,99689.41
2022-11-02T00:39:29.906Z,99694.75
2022-11-02T00:40:34.120Z,99686.13
2022-11-02T00:41:38.494Z,99681.97
2022-11-02T00:42:42.538Z,99692.78
2022-11-02T00:43:46.627Z,99688.28
2022-11-02T00:44:50.719Z,99687.19
2022-11-02T00:45:54.748Z,99695.06
2022-11-02T00:46:58.630Z,99693.28
2022-11-02T00:48:03.335Z,99695.94
2022-11-02T00:49:08.021Z,99688.28
2022-11-02T00:50:11.945Z,99686.59
2022-11-02T00:51:16.167Z,99694.22
2022-11-02T00:52:20.007Z,99695.94
2022-11-02T00:53:23.947Z,99692.31
2022-11-02T00:54:28.653Z,99694.13
2022-11-02T00:55:33.281Z,99691.22
2022-11-02T00:56:39.493Z,99701.66
2022-11-02T00:57:43.288Z,99686.50
2022-11-02T00:58:47.332Z,99693.44
2022-11-02T00:59:51.241Z,99694.28
2022-11-02T01:00:56.777Z,99698.91
2022-11-02T01:02:00.770Z,99697.81
2022-11-02T01:03:04.771Z,99678.47
2022-11-02T01:04:08.772Z,99695.59
2022-11-02T01:05:13.110Z,99693.56
2022-11-02T01:06:17.133Z,99693.44
2022-11-02T01:07:20.897Z,99692.91
2022-11-02T01:08:24.899Z,99696.09
2022-11-02T01:09:29.233Z,99688.94
2022-11-02T01:10:34.551Z,99689.56
2022-11-02T01:11:40.772Z,99689.47
2022-11-02T01:12:44.828Z,99696.09
2022-11-02T01:13:50.939Z,99688.09
2022-11-02T01:14:55.244Z,99688.63
2022-11-02T01:15:59.394Z,99692.00
2022-11-02T01:17:05.019Z,99687.53
2022-11-02T01:18:10.101Z,99684.00
2022-11-02T01:19:14.691Z,99694.69
2022-11-02T01:20:18.932Z,99688.25
2022-11-02T01:21:24.312Z,99688.97
2022-11-02T01:22:28.283Z,99689.22
2022-11-02T01:23:35.575Z,99684.00
2022-11-02T01:24:40.399Z,99688.03
2022-11-02T01:25:47.858Z,99687.78
2022-11-02T01:26:53.233Z,99681.59
2022-11-02T01:27:57.467Z,99680.63
2022-11-02T01:29:01.167Z,99679.53
2022-11-02T01:30:06.913Z,99686.31
2022-11-02T01:31:11.927Z,99683.63
2022-11-02T01:32:16.063Z,99683.41
2022-11-02T01:33:20.508Z,99684.59
2022-11-02T01:34:28.986Z,99685.59
2022-11-02T01:35:33.808Z,99684.22
2022-11-02T01:36:38.524Z,99677.56
2022-11-02T01:37:42.956Z,99692.63
2022-11-02T01:38:49.488Z,99687.53
2022-11-02T01:39:56.576Z,99683.88
2022-11-02T01:41:01.370Z,99676.50
2022-11-02T01:42:40.397Z,99686.09
2022-11-02T01:43:49.398Z,99672.50
2022-11-02T01:44:53.970Z,99679.53
2022-11-02T01:46:08.594Z,99680.88
2022-11-02T01:47:31.835Z,99684.16
2022-11-02T01:49:04.521Z,99685.25
2022-11-02T01:50:26.332Z,99686.56
2022-11-02T01:51:42.904Z,99689.34
2022-11-02T01:52:47.130Z,99689.47
2022-11-02T01:53:56.909Z,99685.81
2022-11-02T01:55:19.570Z,99686.44
2022-11-02T01:56:30.180Z,99686.31
2022-11-02T01:57:37.266Z,99694.94
2022-11-02T01:58:47.068Z,99686.81
2022-11-02T02:00:02.932Z,99692.41
2022-11-02T02:01:07.261Z,99688.88
2022-11-02T02:02:21.000Z,99689.72
2022-11-02T02:03:26.208Z,99685.47
2022-11-02T02:04:30.355Z,99698.81
2022-11-02T02:05:41.475Z,99690.56
2022-11-02T02:06:45.991Z,99693.00
2022-11-02T02:07:51.926Z,99701.97
2022-11-02T02:09:02.967Z,99694.94
2022-11-02T02:10:08.657Z,99693.00
2022-11-02T02:11:38.870Z,99697.50
2022-11-02T02:12:44.538Z,99701.13
2022-11-02T02:13:49.241Z,99705.63
2022-11-02T02:14:55.050Z,99698.47
2022-11-02T02:16:58.359Z,99706.47
2022-11-02T02:18:51.316Z,99700.53
2022-11-02T02:20:35.678Z,99700.75
2022-11-02T02:22:27.781Z,99707.78
2022-11-02T02:23:53.192Z,99704.13
2022-11-02T02:25:40.834Z,99704.03
2022-11-02T02:26:56.398Z,99704.97
2022-11-02T02:28:21.391Z,99703.53
2022-11-02T02:29:42.223Z,99692.84
2022-11-02T02:31:36.490Z,99700.75
2022-11-02T02:33:11.938Z,99694.69
2022-11-02T02:34:33.049Z,99701.84
2022-11-02T02:35:42.881Z,99704.63
2022-11-02T02:37:03.109Z,99698.41
2022-11-02T02:38:36.912Z,99705.56
2022-11-02T02:40:03.336Z,99699.38
2022-11-02T02:41:25.977Z,99691.94
2022-11-02T02:43:05.355Z,99695.38
2022-11-02T02:44:16.891Z,99697.28
2022-11-02T02:45:44.875Z,99698.13
2022-11-02T02:47:01.318Z,99706.91
2022-11-02T02:48:17.955Z,99705.16
2022-11-02T02:49:30.445Z,99714.06
2022-11-02T02:50:42.567Z,99702.97
2022-11-02T02:51:48.044Z,99712.56
2022-11-02T02:52:54.211Z,99709.91
2022-11-02T02:54:08.344Z,99705.41
2022-11-02T02:55:28.216Z,99711.72
2022-11-02T02:56:41.606Z,99717.91
2022-11-02T02:57:48.716Z,99709.78
2022-11-02T02:59:08.976Z,99717.06
2022-11-02T03:00:17.728Z,99706.38
2022-11-02T03:01:25.406Z,99711.72
2022-11-02T03:02:40.442Z,99706.50
2022-11-02T03:03:45.917Z,99716.31
2022-11-02T03:04:50.481Z,99722.50
2022-11-02T03:06:27.263Z,99714.72
2022-11-02T03:07:34.744Z,99713.00
2022-11-02T03:08:44.042Z,99721.25
2022-11-02T03:09:59.042Z,99728.28
2022-11-02T03:11:15.633Z,99728.28
2022-11-02T03:13:14.706Z,99729.72
2022-11-02T03:14:52.229Z,99732.50
2022-11-02T03:16:12.081Z,99735.25
2022-11-02T03:17:41.177Z,99735.25
2022-11-02T03:19:13.231Z,99737.06
2022-11-02T03:20:30.040Z,99732.69
2022-11-02T03:21:45.399Z,99727.50
2022-11-02T03:23:11.777Z,99731.25
2022-11-02T03:25:05.488Z,99732.09
2022-11-02T03:26:33.870Z,99723.16
2022-11-02T03:28:16.888Z,99724.00
2022-11-02T03:29:40.750Z,99729.69
2022-11-02T03:31:00.434Z,99724.25
2022-11-02T03:32:13.495Z,99732.13
2022-11-02T03:33:31.231Z,99725.28
2022-11-02T03:34:48.557Z,99737.69
2022-11-02T03:36:09.110Z,99730.97
2022-11-02T03:37:39.856Z,99729.91
2022-11-02T03:39:07.423Z,99733.00
2022-11-02T03:40:51.081Z,99735.47
2022-11-02T03:41:59.985Z,99727.59
2022-11-02T03:43:07.246Z,99730.97
2022-11-02T03:44:25.305Z,99727.78
2022-11-02T03:45:40.011Z,99718.94
2022-11-02T03:46:47.662Z,99733.97
2022-11-02T03:48:00.854Z,99730.44
2022-11-02T03:49:11.407Z,99738.34
2022-11-02T03:50:22.338Z,99739.31
2022-11-02T03:51:31.756Z,99735.78
2022-11-02T03:52:42.510Z,99741.00
2022-11-02T03:53:59.066Z,99733.84
2022-11-02T03:55:29.524Z,99742.19
2022-11-02T03:56:41.683Z,99733.22
2022-11-02T03:57:52.781Z,99746.66
2022-11-02T03:58:59.132Z,99740.38
2022-11-02T04:00:19.621Z,99744.75
2022-11-02T04:01:25.307Z,99737.88
2022-11-02T04:02:30.327Z,99743.91
2022-11-02T04:03:40.772Z,99740.47
2022-11-02T04:04:54.388Z,99737.03
2022-11-02T04:05:59.232Z,99741.41
2022-11-02T04:07:03.295Z,99747.69
2022-11-02T04:08:24.628Z,99749.41
2022-11-02T04:09:28.959Z,99744.72
2022-11-02T04:10:33.266Z,99747.28
2022-11-02T04:11:56.773Z,99749.88
2022-11-02T04:13:20.216Z,99751.56
2022-11-02T04:14:39.751Z,99749.00
2022-11-02T04:15:44.226Z,99753.94
2022-11-02T04:16:48.553Z,99762.66
2022-11-02T04:18:11.513Z,99758.41
2022-11-02T04:19:30.821Z,99753.94
2022-11-02T04:20:35.148Z,99758.41
2022-11-02T04:21:39.390Z,99758.19
2022-11-02T04:23:02.027Z,99756.59
2022-11-02T04:24:24.972Z,99751.34
2022-11-02T04:25:29.645Z,99754.97
2022-11-02T04:26:33.883Z,99756.78
2022-11-02T04:27:38.166Z,99750.63
2022-11-02T04:28:42.858Z,99755.09
2022-11-02T04:29:48.144Z,99754.34
2022-11-02T04:30:52.452Z,99755.31
2022-11-02T04:31:56.666Z,99761.69
2022-11-02T04:33:19.561Z,99760.84
2022-11-02T04:34:23.760Z,99760.13
2022-11-02T04:35:28.007Z,99760.13
2022-11-02T04:36:36.260Z,99758.41
2022-11-02T04:38:14.469Z,99762.91
2022-11-02T04:39:18.822Z,99756.78
2022-11-02T04:40:23.099Z,99757.56
2022-11-02T04:41:42.117Z,99765.66
2022-11-02T04:42:49.564Z,99763.94
2022-11-02T04:43:54.284Z,99759.47
2022-11-02T04:44:58.179Z,99763.84
2022-11-02T04:46:02.363Z,99771.00
2022-11-02T04:47:06.610Z,99770.03
2022-11-02T04:48:10.964Z,99764.78
2022-11-02T04:49:15.469Z,99763.94
2022-11-02T04:50:20.486Z,99772.78
2022-11-02T04:51:27.896Z,99766.09
2022-11-02T04:52:32.538Z,99764.16
2022-11-02T04:53:37.204Z,99773.13
2022-11-02T04:54:42.154Z,99769.63
2022-11-02T04:55:47.775Z,99772.16
2022-11-02T04:56:51.998Z,99771.19
2022-11-02T04:57:56.371Z,99774.72
2022-11-02T04:59:02.519Z,99765.97
2022-11-02T05:00:08.097Z,99773.00
2022-11-02T05:01:16.955Z,99774.72
2022-11-02T05:02:21.088Z,99767.56
2022-11-02T05:03:25.909Z,99771.00
2022-11-02T05:04:31.051Z,99759.38
2022-11-02T05:05:36.089Z,99765.44
2022-11-02T05:06:40.440Z,99771.50
2022-11-02T05:07:45.610Z,99764.28
2022-11-02T05:08:50.262Z,99765.22
2022-11-02T05:09:54.819Z,99767.47
2022-11-02T05:11:00.539Z,99760.13
2022-11-02T05:12:05.622Z,99765.22
2022-11-02T05:13:11.829Z,99773.00
2022-11-02T05:14:16.360Z,99763.09
2022-11-02T05:15:20.851Z,99767.56
2022-11-02T05:16:25.235Z,99768.41
2022-11-02T05:17:31.532Z,99773.00
2022-11-02T05:18:36.636Z,99770.53
2022-11-02T05:19:41.234Z,99771.41
2022-11-02T05:20:55.400Z,99778.00
2022-11-02T05:22:00.503Z,99777.06
2022-11-02T05:23:07.502Z,99771.63
2022-11-02T05:24:12.222Z,99777.69
2022-11-02T05:25:16.870Z,99778.66
2022-11-02T05:26:21.325Z,99780.34
2022-11-02T05:27:26.627Z,99782.78
2022-11-02T05:28:32.701Z,99781.84
2022-11-02T05:29:37.426Z,99782.59
2022-11-02T05:30:41.832Z,99792.94
2022-11-02T05:31:46.627Z,99788.44
2022-11-02T05:32:50.954Z,99786.56
2022-11-02T05:33:59.007Z,99789.84
2022-11-02T05:35:04.451Z,99794.22
2022-11-02T05:36:09.763Z,99791.44
2022-11-02T05:37:14.764Z,99785.16
2022-11-02T05:38:19.662Z,99790.47
2022-11-02T05:39:24.493Z,99788.66
2022-11-02T05:40:28.483Z,99792.06
2022-11-02T05:41:32.588Z,99783.22
2022-11-02T05:42:37.821Z,99789.28
2022-11-02T05:43:42.221Z,99784.06
2022-11-02T05:44:46.619Z,99789.94
2022-11-02T05:46:00.467Z,99798.91
2022-11-02T05:47:05.558Z,99791.03
2022-11-02T05:48:11.522Z,99799.63
2022-11-02T05:49:15.955Z,99796.97
2022-11-02T05:50:23.439Z,99798.56
2022-11-02T05:51:27.824Z,99792.28
2022-11-02T05:52:32.097Z,99796.84
2022-11-02T05:53:38.616Z,99793.34
2022-11-02T05:54:42.797Z,99803.88
2022-11-02T05:55:47.719Z,99801.22
2022-11-02T05:56:52.060Z,99803.78
2022-11-02T05:57:57.220Z,99798.66
2022-11-02T05:59:02.421Z,99803.78
2022-11-02T06:00:09.077Z,99809.97
2022-11-02T06:01:14.750Z,99806.47
2022-11-02T06:02:23.249Z,99805.63
2022-11-02T06:03:31.929Z,99809.13
2022-11-02T06:04:36.594Z,99808.03
2022-11-02T06:05:41.624Z,99804.66
2022-11-02T06:06:46.128Z,99808.28
2022-11-02T06:07:51.075Z,99807.50
2022-11-02T06:08:56.204Z,99804.66
2022-11-02T06:10:00.823Z,99807.41
2022-11-02T06:11:14.906Z,99799.31
2022-11-02T06:12:20.032Z,99807.19
2022-11-02T06:13:24.433Z,99815.06
2022-11-02T06:14:28.718Z,99808.78
2022-11-02T06:15:33.998Z,99812.28
2022-11-02T06:16:38.557Z,99805.91
2022-11-02T06:17:43.112Z,99813.16
2022-11-02T06:18:49.637Z,99812.28
2022-11-02T06:19:54.763Z,99808.03
2022-11-02T06:21:01.582Z,99813.16
2022-11-02T06:22:26.178Z,99815.06
2022-11-02T06:23:37.236Z,99810.41
2022-11-02T06:24:41.766Z,99805.91
2022-11-02T06:26:09.278Z,99822.75
2022-11-02T06:27:16.789Z,99821.91
2022-11-02T06:28:23.647Z,99810.47
2022-11-02T06:29:28.469Z,99818.28
2022-11-02T06:30:32.252Z,99821.69
2022-11-02T06:31:37.214Z,99823.38
2022-11-02T06:32:47.481Z,99828.59
2022-11-02T06:33:52.535Z,99819.75
2022-11-02T06:35:02.358Z,99823.19
2022-11-02T06:36:08.901Z,99821.56
2022-11-02T06:37:16.610Z,99818.69
2022-11-02T06:38:32.210Z,99814.22
2022-11-02T06:39:39.755Z,99815.06
2022-11-02T06:40:57.767Z,99817.50
2022-11-02T06:42:07.664Z,99823.59
2022-11-02T06:43:20.723Z,99820.56
2022-11-02T06:44:53.016Z,99816.72
2022-11-02T06:46:03.169Z,99815.44
2022-11-02T06:47:11.102Z,99817.97
2022-11-02T06:48:18.899Z,99813.09
2022-11-02T06:49:24.325Z,99823.31
2022-11-02T06:50:30.381Z,99818.72
2022-11-02T07:36:06.701Z,99802.38
2022-11-02T07:37:11.151Z,99805.09
2022-11-02T07:38:16.241Z,99806.31
2022-11-02T07:39:21.247Z,99800.59
2022-11-02T07:40:29.663Z,99802.16
2022-11-02T07:41:35.868Z,99795.50
2022-11-02T07:42:49.254Z,99804.72
2022-11-02T07:43:56.426Z,99805.53
2022-11-02T07:45:02.075Z,99802.53
2022-11-02T07:46:07.167Z,99805.81
2022-11-02T07:47:12.539Z,99803.34
2022-11-02T07:48:18.626Z,99803.91
2022-11-02T07:49:23.910Z,99797.22
2022-11-02T07:50:29.833Z,99807.09
2022-11-02T07:51:34.823Z,99804.03
2022-11-02T07:52:48.108Z,99800.59
2022-11-02T07:53:52.929Z,99794.84
2022-11-02T07:54:57.664Z,99798.19
2022-11-02T07:56:03.122Z,99796.25
2022-11-02T07:57:07.891Z,99799.41
2022-11-02T07:58:15.879Z,99798.47
2022-11-02T07:59:22.019Z,99790.53
2022-11-02T08:00:39.422Z,99797.09
2022-11-02T08:01:45.909Z,99800.19
2022-11-02T08:02:55.766Z,99798.00
2022-11-02T08:04:00.417Z,99795.53
2022-11-02T08:05:06.422Z,99791.47
2022-11-02T08:06:11.927Z,99797.66
2022-11-02T08:07:16.139Z,99800.09
2022-11-02T08:08:23.724Z,99793.13
2022-11-02T08:13:46.981Z,99798.94
2022-11-02T08:14:52.031Z,99795.97
2022-11-02T08:16:31.985Z,99791.16
2022-11-02T08:17:43.861Z,99795.97
2022-11-02T08:18:59.992Z,99785.72
2022-11-02T08:20:08.930Z,99796.59
2022-11-02T08:21:16.658Z,99789.16
2022-11-02T08:22:22.774Z,99790.41
2022-11-02T08:23:27.814Z,99789.91
2022-11-02T08:24:32.613Z,99799.00
2022-11-02T08:25:39.342Z,99782.00
2022-11-02T08:26:45.375Z,99784.09
2022-11-02T08:27:51.448Z,99778.75
2022-11-02T09:17:42.764Z,99775.25
2022-11-02T09:18:48.625Z,99773.97
2022-11-02T09:19:53.036Z,99772.84
2022-11-02T09:20:58.107Z,99771.22
2022-11-02T09:22:05.647Z,99767.69
2022-11-02T09:23:11.016Z,99774.81
2022-11-02T09:24:17.509Z,99770.06
2022-11-02T09:25:22.714Z,99771.06
2022-11-02T09:26:27.122Z,99778.13
2022-11-02T09:27:31.341Z,99771.16
2022-11-02T09:28:36.649Z,99773.00
2022-11-02T09:29:42.998Z,99780.53
2022-11-02T09:30:49.699Z,99778.63
2022-11-02T09:31:53.832Z,99773.84
2022-11-02T09:33:03.844Z,99765.47
2022-11-02T09:34:11.571Z,99766.78
2022-11-02T09:35:21.598Z,99767.88
2022-11-02T09:36:29.048Z,99767.75
2022-11-02T09:37:38.889Z,99764.22
2022-11-02T09:38:43.454Z,99763.75
2022-11-02T09:39:48.332Z,99762.88
2022-11-02T09:40:58.876Z,99771.41
2022-11-02T09:42:22.077Z,99772.28
2022-11-02T09:44:08.277Z,99764.50
2022-11-02T09:45:18.772Z,99764.06
2022-11-02T09:54:27.634Z,99763.72
2022-11-02T09:55:40.985Z,99757.84
2022-11-02T09:56:47.410Z,99748.19
2022-11-02T09:58:04.773Z,99752.84
2022-11-02T09:59:23.580Z,99756.13
2022-11-02T10:00:37.624Z,99753.91
2022-11-02T10:02:24.807Z,99752.19
2022-11-02T10:04:20.847Z,99756.16
2022-11-02T10:05:37.456Z,99754.19
2022-11-02T10:06:54.647Z,99752.94
2022-11-02T10:08:27.432Z,99755.50
2022-11-02T10:10:07.379Z,99751.41
2022-11-02T10:11:38.868Z,99754.81
2022-11-02T10:12:58.099Z,99754.81
2022-11-02T10:14:20.951Z,99754.53
2022-11-02T10:15:35.545Z,99743.66
2022-11-02T10:17:01.245Z,99749.44
2022-11-02T10:18:14.643Z,99740.38
2022-11-02T10:19:26.203Z,99752.56
2022-11-02T10:20:47.739Z,99751.84
2022-11-02T10:21:59.350Z,99748.31
2022-11-02T10:23:13.113Z,99747.44
2022-11-02T10:24:35.972Z,99741.53
2022-11-02T10:25:50.117Z,99748.31
2022-11-02T10:27:01.615Z,99744.06
2022-11-02T10:28:20.919Z,99734.72
2022-11-02T10:29:53.240Z,99737.69
2022-11-02T10:30:58.645Z,99736.16
2022-11-02T10:32:03.747Z,99747.19
2022-11-02T10:33:20.907Z,99739.53
2022-11-02T10:34:34.481Z,99728.78
2022-11-02T10:37:40.082Z,99736.44
2022-11-02T10:39:25.957Z,99729.34
2022-11-02T10:40:45.033Z,99726.53
2022-11-02T10:42:15.368Z,99731.63
2022-11-02T10:43:59.891Z,99727.50
2022-11-02T10:46:10.307Z,99734.59
2022-11-02T10:47:30.878Z,99737.41
2022-11-02T11:00:37.122Z,99725.69
2022-11-02T11:02:15.711Z,99724.13
2022-11-02T11:57:40.059Z,99711.13
2022-11-02T11:58:52.367Z,99706.84
2022-11-02T11:59:59.277Z,99707.16
2022-11-02T12:01:21.257Z,99716.38
2022-11-02T12:02:30.629Z,99704.91
2022-11-02T12:03:55.810Z,99705.75
2022-11-02T12:23:57.652Z,99707.66
2022-11-02T12:25:31.647Z,99705.53
2022-11-02T12:27:07.831Z,99692.28
2022-11-02T12:28:58.460Z,99697.50
2022-11-02T12:30:51.836Z,99697.34
2022-11-02T12:32:20.517Z,99698.09
2022-11-02T12:33:36.252Z,99689.41
2022-11-02T12:35:28.278Z,99689.56
2022-11-02T12:39:25.235Z,99681.34
2022-11-02T12:40:58.464Z,99680.66
2022-11-02T12:42:32.963Z,99673.44
2022-11-02T12:43:49.634Z,99687.59
2022-11-02T12:45:33.187Z,99692.97
2022-11-02T12:47:27.338Z,99681.50
2022-11-02T12:49:06.819Z,99681.34
2022-11-02T12:50:56.206Z,99687.44
2022-11-02T12:52:03.343Z,99685.19
2022-11-02T12:53:42.865Z,99695.06
2022-11-02T12:54:54.785Z,99689.41
2022-11-02T12:56:05.602Z,99683.19
2022-11-02T12:57:17.029Z,99689.94
2022-11-02T12:58:35.822Z,99689.09
2022-11-02T12:59:44.190Z,99682.03
2022-11-02T13:00:56.738Z,99691.09
2022-11-02T13:02:34.491Z,99685.47
2022-11-02T13:04:24.513Z,99681.22
2022-11-02T13:05:46.230Z,99684.03
2022-11-02T13:07:16.631Z,99686.03
2022-11-02T13:08:41.268Z,99680.13
2022-11-02T13:10:01.207Z,99689.19
2022-11-02T13:11:16.347Z,99685.91
2022-11-02T13:12:25.501Z,99690.28
2022-11-02T13:14:01.439Z,99687.63
2022-11-02T13:15:13.026Z,99689.16
2022-11-02T13:16:33.514Z,99685.09
2022-11-02T13:18:02.964Z,99684.09
2022-11-02T13:19:30.523Z,99684.09
2022-11-02T13:21:03.205Z,99691.47
2022-11-02T13:25:30.244Z,99683.13
2022-11-02T13:26:42.532Z,99687.06
2022-11-02T13:28:06.261Z,99691.03
2022-11-02T13:29:32.819Z,99687.22
2022-11-02T13:30:41.994Z,99687.38
2022-11-02T13:31:57.041Z,99687.94
2022-11-02T13:33:37.747Z,99692.31
2022-11-02T13:34:47.889Z,99689.75
2022-11-02T13:35:53.946Z,99693.69
2022-11-02T13:36:59.025Z,99691.31
2022-11-02T13:38:26.294Z,99685.94
2022-11-02T13:39:42.254Z,99686.94
2022-11-02T13:41:26.239Z,99700.22
2022-11-02T13:42:56.560Z,99691.03
2022-11-02T13:45:03.716Z,99691.31
2022-11-02T13:47:04.057Z,99688.63
2022-11-02T13:48:36.990Z,99686.94
2022-11-02T13:49:52.442Z,99693.03
2022-11-02T13:51:06.624Z,99692.03
2022-11-02T13:53:05.384Z,99683.13
2022-11-02T13:54:28.071Z,99687.50
2022-11-02T13:56:21.075Z,99677.72
2022-11-02T13:57:40.436Z,99692.69
2022-11-02T13:59:10.531Z,99692.28
2022-11-02T14:00:25.384Z,99685.75
2022-11-02T14:01:36.991Z,99696.34
2022-11-02T14:02:44.796Z,99687.19
2022-11-02T14:04:02.986Z,99691.13
2022-11-02T14:05:08.798Z,99692.81
2022-11-02T14:06:17.279Z,99689.41
2022-11-02T14:07:36.025Z,99691.84
2022-11-02T14:08:54.663Z,99694.66
2022-11-02T14:10:09.494Z,99697.34
2022-11-02T14:11:18.841Z,99692.28
2022-11-02T14:12:29.306Z,99696.97
2022-11-02T14:14:09.044Z,99694.97
2022-11-02T14:15:13.536Z,99696.25
2022-11-02T14:16:44.771Z,99691.47
2022-11-02T14:18:02.702Z,99692.84
2022-11-02T14:19:32.942Z,99688.91
2022-11-02T14:20:44.305Z,99695.69
2022-11-02T14:21:52.619Z,99707.28
2022-11-02T14:23:12.504Z,99704.88
2022-11-02T14:24:37.287Z,99707.28
2022-11-02T14:25:47.053Z,99704.91
2022-11-02T14:26:57.904Z,99701.34
2022-11-02T14:28:22.994Z,99696.13
2022-11-02T14:29:53.548Z,99697.09
2022-11-02T14:31:04.904Z,99697.53
2022-11-02T14:32:21.827Z,99697.41
2022-11-02T14:34:07.952Z,99701.63
2022-11-02T14:35:51.518Z,99705.19
2022-11-02T14:37:52.629Z,99701.91
2022-11-02T14:39:40.255Z,99702.34
2022-11-02T14:41:37.722Z,99708.59
2022-11-02T14:43:19.682Z,99708.84
2022-11-02T14:45:01.475Z,99705.78
2022-11-02T14:46:53.927Z,99706.63
2022-11-02T14:48:04.769Z,99706.34
2022-11-02T14:49:30.791Z,99709.28
2022-11-02T14:50:37.554Z,99709.00
2022-11-02T14:51:43.483Z,99706.19
2022-11-02T14:53:23.421Z,99703.91
2022-11-02T14:54:32.820Z,99709.25
2022-11-02T14:55:40.052Z,99714.31
2022-11-02T14:57:26.634Z,99712.06
2022-11-02T14:58:42.736Z,99714.03
2022-11-02T14:59:54.948Z,99711.06
2022-11-02T15:01:04.361Z,99710.75
2022-11-02T15:02:37.218Z,99710.75
2022-11-02T15:03:46.642Z,99708.63
2022-11-02T15:04:58.232Z,99705.50
2022-11-02T15:06:11.688Z,99709.16
2022-11-02T15:07:45.494Z,99703.78
2022-11-02T15:09:04.394Z,99710.16
2022-11-02T15:10:31.557Z,99714.81
2022-11-02T15:11:59.599Z,99714.22
2022-11-02T15:13:25.104Z,99715.75
2022-11-02T15:14:39.474Z,99715.03
2022-11-02T15:15:44.822Z,99720.41
2022-11-02T15:16:50.714Z,99723.06
2022-11-02T15:17:59.983Z,99715.72
2022-11-02T15:20:18.513Z,99719.97
2022-11-02T15:21:27.341Z,99719.53
2022-11-02T16:27:14.558Z,99776.09
2022-11-02T16:28:34.280Z,99785.81
2022-11-02T16:29:40.022Z,99783.25
2022-11-02T16:35:36.753Z,99786.44
2022-11-02T16:36:42.905Z,99785.25
2022-11-02T16:37:50.432Z,99799.72
2022-11-02T16:39:00.179Z,99797.91
2022-11-02T16:55:04.156Z,99804.81
2022-11-02T17:41:14.973Z,99842.78
2022-11-02T17:42:39.357Z,99839.84
2022-11-02T17:43:44.206Z,99834.88
2022-11-02T17:44:50.331Z,99849.69
2022-11-02T17:46:04.133Z,99839.13
2022-11-02T17:47:16.517Z,99842.41
2022-11-02T17:48:22.477Z,99838.16
2022-11-02T17:49:27.354Z,99843.13
2022-11-02T17:50:35.681Z,99838.88
2022-11-02T18:05:58.770Z,99853.19
2022-11-02T18:07:05.621Z,99855.84
2022-11-02T18:08:10.728Z,99857.19
2022-11-02T18:09:19.524Z,99866.31
2022-11-02T18:56:40.163Z,99884.00
2022-11-02T18:58:01.790Z,99893.50
2022-11-02T19:04:53.681Z,99904.44
2022-11-02T20:29:04.499Z,99956.06
2022-11-02T20:30:12.786Z,99958.84
2022-11-02T20:31:26.109Z,99959.06
2022-11-02T20:32:30.808Z,99962.13
2022-11-02T23:30:29.220Z,100010.91
2022-11-02T23:31:55.800Z,100013.81
2022-11-02T23:33:01.792Z,100012.94
2022-11-02T23:34:06.320Z,100017.31
2022-11-02T23:35:29.985Z,100014.75
2022-11-02T23:38:08.430Z,100012.84
2022-11-02T23:39:31.530Z,100011.31
2022-11-02T23:40:35.908Z,100015.81
2022-11-02T23:41:43.161Z,100013.25
2022-11-02T23:42:47.818Z,100012.28
2022-11-02T23:44:11.677Z,100019.31
